»·PEaware :: N2U KOFK-KLBF

N2U :: KOFK-KLBF

FLIGHT INFORMATION

Flight Status: Arrived
Operator: Privately registered:
United States
More flights under this callsign
Pilot: Tanner C. (11250)
Aircraft: SOCATA TBM-900
(TBM9)
More flights by this aircraft type
Origin: KOFK Stefan Meml
United States
Destination: KLBF North Platte Regl-Bird
United States
More flights between these airports :: More routes between these airports
Route: DIR
File this flight plan on PilotEdge
Remarks:
Altitude:
(Current/Filed)
17,500ft
Speed:
(Current/Filed)
250kts
Departed: 07-Jan-19 04:52 PM
Arrived: 07-Jan-19 05:39 PM
Distance/Time
Traveled:
155nm/0:47
Distance/Time
To Go:
Arrived

Flight Plot

Page will automatically refresh every two minutes.

Flight plan parsing failed; only flown route is shown


Map Options




Map Legend


Flown Route
Filed Route
Departure Airport
Arrival Airport
Navaid (VOR, NDB)
Fix

Horizontal Profiles

Position Reports

Time Latitude Longitude Heading Altitude Ground
Speed
07-Jan-19 16:50 41.929518 -97.728336 253 17474ft 220kts
07-Jan-19 16:51 41.914005 -97.790969 253 17466ft 228kts
07-Jan-19 16:52 41.897844 -97.854820 252 17487ft 230kts
07-Jan-19 16:53 41.880895 -97.920945 252 17489ft 232kts
07-Jan-19 16:54 41.861256 -97.997122 252 17488ft 232kts
07-Jan-19 16:55 41.845944 -98.056287 252 17487ft 232kts
07-Jan-19 16:56 41.829811 -98.118395 252 17487ft 232kts
07-Jan-19 16:57 41.813188 -98.182274 252 17486ft 232kts
07-Jan-19 16:58 41.796484 -98.246360 252 17485ft 231kts
07-Jan-19 16:59 41.779598 -98.310889 252 17485ft 231kts
07-Jan-19 17:00 41.763385 -98.372745 252 17484ft 231kts
07-Jan-19 17:01 41.746069 -98.438660 252 17483ft 231kts
07-Jan-19 17:02 41.728393 -98.505935 252 17483ft 231kts
07-Jan-19 17:03 41.711250 -98.570740 252 17482ft 231kts
07-Jan-19 17:04 41.694298 -98.634682 252 17464ft 232kts
07-Jan-19 17:05 41.677349 -98.698561 252 17464ft 232kts
07-Jan-19 17:06 41.661665 -98.757475 252 17463ft 233kts
07-Jan-19 17:07 41.646490 -98.814350 252 17463ft 233kts
07-Jan-19 17:08 41.631228 -98.871353 252 17462ft 233kts
07-Jan-19 17:09 41.615222 -98.930922 252 17461ft 232kts
07-Jan-19 17:10 41.599016 -98.991134 252 17461ft 232kts
07-Jan-19 17:11 41.584276 -99.045842 252 17460ft 232kts
07-Jan-19 17:12 41.567771 -99.107032 252 17460ft 232kts
07-Jan-19 17:13 41.546771 -99.184494 252 17459ft 232kts
07-Jan-19 17:14 41.525882 -99.261315 252 17458ft 232kts
07-Jan-19 17:15 41.504846 -99.338451 252 17457ft 231kts
07-Jan-19 17:16 41.483645 -99.415901 252 17456ft 231kts
07-Jan-19 17:17 41.462498 -99.493049 252 17453ft 231kts
07-Jan-19 17:18 41.443023 -99.576903 258 15587ft 268kts
07-Jan-19 17:19 41.429891 -99.661573 248 15456ft 243kts
07-Jan-19 17:20 41.399189 -99.732043 254 15449ft 231kts
07-Jan-19 17:21 41.379488 -99.804828 251 15461ft 227kts
07-Jan-19 17:22 41.360931 -99.885578 261 13627ft 261kts
07-Jan-19 17:23 41.350982 -99.965821 248 13454ft 227kts
07-Jan-19 17:24 41.328772 -100.032785 250 13457ft 217kts
07-Jan-19 17:25 41.307291 -100.100711 249 13459ft 215kts
07-Jan-19 17:26 41.286209 -100.168229 251 13458ft 214kts
07-Jan-19 17:27 41.265291 -100.236347 250 13493ft 212kts
07-Jan-19 17:28 41.243240 -100.313957 260 12369ft 235kts
07-Jan-19 17:29 41.253824 -100.402021 280 10543ft 246kts
07-Jan-19 17:30 41.265391 -100.483068 255 8458ft 203kts
07-Jan-19 17:31 41.216216 -100.504850 194 6692ft 200kts
07-Jan-19 17:32 41.168456 -100.525009 203 5850ft 161kts
07-Jan-19 17:33 41.129671 -100.543541 204 5505ft 151kts
07-Jan-19 17:34 41.090239 -100.561937 203 4986ft 139kts
07-Jan-19 17:35 41.080876 -100.596291 296 4681ft 104kts
07-Jan-19 17:36 41.098003 -100.627784 300 3650ft 106kts
07-Jan-19 17:37 41.113162 -100.655671 300 3020ft 93kts
07-Jan-19 17:38 41.123684 -100.674705 303 2765ft 31kts
07-Jan-19 17:39 41.125581 -100.678111 298 2766ft 20kts
07-Jan-19 17:40 41.125126 -100.679574 219 2768ft 4kts
07-Jan-19 17:41 41.126905 -100.684102 304 2769ft 30kts
07-Jan-19 17:42 41.131098 -100.692040 277 2774ft 20kts
07-Jan-19 17:43 41.131617 -100.697245 2 2777ft 13kts
07-Jan-19 17:44 41.132017 -100.696892 92 2776ft 0kts
07-Jan-19 17:45 41.132017 -100.696892 92 2776ft 0kts

Navigation Log

Ident Type
Flight plan parsing failed, navigation log unavailable